createdAt,value
2023-02-13T00:03:04.931Z,102159.72
2023-02-13T00:08:06.369Z,102154.69
2023-02-13T00:13:07.744Z,102153.88
2023-02-13T00:18:09.119Z,102147.63
2023-02-13T00:23:10.510Z,102143.00
2023-02-13T00:28:11.978Z,102145.69
2023-02-13T00:33:13.512Z,102141.75
2023-02-13T00:38:14.888Z,102140.22
2023-02-13T00:43:16.280Z,102144.34
2023-02-13T00:48:17.694Z,102135.50
2023-02-13T00:53:19.855Z,102137.09
2023-02-13T00:58:21.370Z,102145.50
2023-02-13T01:03:22.823Z,102144.34
2023-02-13T01:08:24.352Z,102141.78
2023-02-13T01:13:25.856Z,102150.31
2023-02-13T01:18:27.252Z,102147.00
2023-02-13T01:23:38.168Z,102145.28
2023-02-13T01:28:39.599Z,102134.47
2023-02-13T01:33:41.044Z,102136.34
2023-02-13T01:38:42.451Z,102137.50
2023-02-13T01:43:54.463Z,102129.97
2023-02-13T01:48:58.521Z,102128.81
2023-02-13T01:54:06.736Z,102121.00
2023-02-13T01:59:14.892Z,102127.97
2023-02-13T02:04:22.429Z,102123.44
2023-02-13T02:09:26.185Z,102120.72
2023-02-13T02:14:27.708Z,102119.59
2023-02-13T02:19:35.104Z,102116.56
2023-02-13T02:24:41.323Z,102108.88
2023-02-13T02:29:59.818Z,102113.59
2023-02-13T02:35:26.793Z,102115.47
2023-02-13T02:40:45.807Z,102118.06
2023-02-13T02:46:04.055Z,102110.25
2023-02-13T02:51:25.508Z,102110.84
2023-02-13T02:56:40.873Z,102116.97
2023-02-13T03:02:00.947Z,102126.59
2023-02-13T03:07:04.664Z,102125.41
2023-02-13T03:12:24.592Z,102124.59
2023-02-13T03:17:44.327Z,102113.75
2023-02-13T03:23:00.195Z,102126.19
2023-02-13T03:28:23.848Z,102114.31
2023-02-13T03:33:30.856Z,102130.06
2023-02-13T03:38:50.276Z,102128.47
2023-02-13T03:43:57.555Z,102128.91
2023-02-13T03:49:17.426Z,102132.69
2023-02-13T03:54:59.813Z,102129.00
2023-02-13T04:00:01.432Z,102129.00
2023-02-13T04:05:14.731Z,102127.25
2023-02-13T04:10:16.977Z,102132.31
2023-02-13T04:15:31.183Z,102132.03
2023-02-13T04:20:32.553Z,102123.91
2023-02-13T04:25:34.365Z,102127.97
2023-02-13T04:30:35.871Z,102127.03
2023-02-13T04:35:37.340Z,102128.91
2023-02-13T04:40:38.705Z,102121.28
2023-02-13T04:45:40.105Z,102127.13
2023-02-13T04:50:41.515Z,102124.88
2023-02-13T04:55:43.091Z,102126.00
2023-02-13T05:00:44.508Z,102123.28
2023-02-13T05:05:45.878Z,102121.13
2023-02-13T05:10:48.194Z,102117.06
2023-02-13T05:15:49.627Z,102115.84
2023-02-13T05:21:11.042Z,102126.19
2023-02-13T05:26:12.420Z,102129.41
2023-02-13T05:31:13.932Z,102135.44
2023-02-13T05:36:15.399Z,102129.97
2023-02-13T05:41:16.785Z,102126.50
2023-02-13T05:46:18.343Z,102133.25
2023-02-13T05:51:20.107Z,102126.78
2023-02-13T05:56:21.475Z,102127.16
2023-02-13T06:01:23.124Z,102136.00
2023-02-13T06:06:25.334Z,102124.69
2023-02-13T06:11:27.831Z,102125.00
2023-02-13T06:16:31.060Z,102136.09
2023-02-13T06:21:33.422Z,102142.13
2023-02-13T06:26:34.834Z,102142.78
2023-02-13T06:31:36.262Z,102148.53
2023-02-13T06:36:38.324Z,102145.63
2023-02-13T06:41:39.692Z,102158.16
2023-02-13T06:46:41.097Z,102160.03
2023-02-13T06:51:42.524Z,102159.44
2023-02-13T06:56:43.923Z,102170.84
2023-02-13T07:01:45.324Z,102165.56
2023-02-13T07:06:46.699Z,102171.59
2023-02-13T07:11:48.088Z,102176.03
2023-02-13T07:16:49.460Z,102176.31
2023-02-13T07:21:50.826Z,102178.03
2023-02-13T07:26:52.247Z,102173.75
2023-02-13T07:31:53.967Z,102183.38
2023-02-13T07:36:55.490Z,102181.13
2023-02-13T07:41:56.909Z,102180.56
2023-02-13T07:46:58.434Z,102181.41
2023-02-13T07:51:59.871Z,102179.41
2023-02-13T07:57:01.285Z,102191.38
2023-02-13T08:02:02.776Z,102182.63
2023-02-13T08:07:04.274Z,102190.25
2023-02-13T08:12:06.952Z,102190.63
2023-02-13T08:17:09.359Z,102194.59
2023-02-13T08:22:10.753Z,102200.03
2023-02-13T08:27:15.321Z,102194.50
2023-02-13T08:32:17.451Z,102202.69
2023-02-13T08:37:18.941Z,102207.69
2023-02-13T08:42:20.335Z,102205.13
2023-02-13T08:47:21.700Z,102211.09
2023-02-13T08:52:23.080Z,102203.16
2023-02-13T08:57:24.462Z,102203.53
2023-02-13T09:02:25.982Z,102199.50
2023-02-13T09:07:27.511Z,102203.63
2023-02-13T09:12:28.905Z,102215.53
2023-02-13T09:17:30.297Z,102223.31
2023-02-13T09:22:31.674Z,102215.97
2023-02-13T09:27:33.681Z,102210.06
2023-02-13T09:32:35.763Z,102212.69
2023-02-13T09:37:37.215Z,102217.41
2023-02-13T09:42:38.591Z,102212.31
2023-02-13T09:47:41.382Z,102219.81
2023-02-13T09:52:44.031Z,102216.31
2023-02-13T09:57:54.016Z,102227.22
2023-02-13T10:02:58.340Z,102228.38
2023-02-13T10:08:39.816Z,102233.00
2023-02-13T10:14:05.914Z,102236.00
2023-02-13T10:19:25.047Z,102236.94
2023-02-13T10:24:45.060Z,102236.00
2023-02-13T10:30:05.040Z,102232.53
2023-02-13T10:35:28.062Z,102218.75
2023-02-13T10:40:33.925Z,102223.28
2023-02-13T10:46:19.306Z,102209.91
2023-02-13T10:51:44.001Z,102202.84
2023-02-13T10:57:23.385Z,102192.50
2023-02-13T11:02:29.578Z,102192.19
2023-02-13T11:07:31.337Z,102182.31
2023-02-13T11:12:33.573Z,102188.34
2023-02-13T11:17:36.461Z,102185.63
2023-02-13T11:22:39.177Z,102182.41
2023-02-13T11:27:40.553Z,102178.28
2023-02-13T11:32:41.944Z,102178.41
2023-02-13T11:37:43.328Z,102178.78
2023-02-13T11:42:44.701Z,102177.19
2023-02-13T11:47:46.084Z,102167.84
2023-02-13T11:53:00.663Z,102164.75
2023-02-13T11:58:23.753Z,102155.78
2023-02-13T12:03:30.331Z,102157.22
2023-02-13T12:08:36.092Z,102151.91
2023-02-13T12:13:38.854Z,102142.22
2023-02-13T12:18:48.942Z,102142.69
2023-02-13T12:24:02.349Z,102134.44
2023-02-13T12:29:25.381Z,102124.81
2023-02-13T12:34:57.213Z,102116.81
2023-02-13T12:40:26.655Z,102120.94
2023-02-13T12:46:13.032Z,102108.44
2023-02-13T12:51:20.833Z,102113.97
2023-02-13T12:56:46.863Z,102109.06
2023-02-13T13:02:16.633Z,102110.78
2023-02-13T13:07:23.822Z,102112.75
2023-02-13T13:12:40.744Z,102107.66
2023-02-13T13:17:57.247Z,102104.16
2023-02-13T13:23:06.785Z,102109.94
2023-02-13T13:28:21.624Z,102097.50
2023-02-13T13:33:24.725Z,102116.03
2023-02-13T13:38:57.595Z,102112.81
2023-02-13T13:44:33.691Z,102111.59
2023-02-13T13:49:53.725Z,102119.34
2023-02-13T13:54:56.725Z,102118.22
2023-02-13T14:00:00.348Z,102117.47
2023-02-13T14:05:13.908Z,102114.97
2023-02-13T14:10:21.382Z,102115.16
2023-02-13T14:15:35.092Z,102126.69
2023-02-13T14:20:52.470Z,102128.94
2023-02-13T14:26:15.486Z,102130.31
2023-02-13T14:31:25.067Z,102119.38
2023-02-13T14:36:32.167Z,102103.41
2023-02-13T14:41:53.897Z,102110.41
2023-02-13T14:46:55.282Z,102120.94
2023-02-13T14:51:58.115Z,102097.09
2023-02-13T14:57:13.702Z,102096.78
2023-02-13T15:02:29.398Z,102095.22
2023-02-13T15:07:34.971Z,102082.84
2023-02-13T15:12:36.851Z,102075.81
2023-02-13T15:17:40.047Z,102078.16
2023-02-13T15:22:42.436Z,102069.03
2023-02-13T15:27:44.138Z,102071.88
2023-02-13T15:32:45.508Z,102067.59
2023-02-13T15:37:46.878Z,102054.88
2023-02-13T15:42:48.266Z,102052.78
2023-02-13T15:47:49.648Z,102052.44
2023-02-13T15:52:51.023Z,102049.44
2023-02-13T15:57:54.164Z,102078.25
2023-02-13T16:02:56.116Z,102075.25
2023-02-13T16:07:58.561Z,102066.41
2023-02-13T16:13:02.311Z,102060.84
2023-02-13T16:18:06.563Z,102057.38
2023-02-13T16:23:16.520Z,102060.47
2023-02-13T16:28:22.227Z,102054.78
2023-02-13T16:33:30.742Z,102060.16
2023-02-13T16:38:34.485Z,102060.97
2023-02-13T16:43:43.972Z,102054.06
2023-02-13T16:48:46.020Z,102067.59
2023-02-13T16:53:47.426Z,102064.22
2023-02-13T16:58:48.803Z,102057.84
2023-02-13T17:03:50.240Z,102056.03
2023-02-13T17:08:52.889Z,102050.47
2023-02-13T17:13:54.278Z,102045.69
2023-02-13T17:18:55.685Z,102047.09
2023-02-13T17:23:57.074Z,102052.47
2023-02-13T17:28:58.519Z,102042.22
2023-02-13T17:33:59.889Z,102034.47
2023-02-13T17:39:01.267Z,102032.03
2023-02-13T17:44:04.332Z,102034.28
2023-02-13T17:49:05.860Z,102049.19
2023-02-13T17:54:09.116Z,102050.41
2023-02-13T17:59:10.499Z,102039.09
2023-02-13T18:04:11.898Z,102028.81
2023-02-13T18:09:13.318Z,102029.22
2023-02-13T18:14:14.870Z,102044.09
2023-02-13T18:19:16.284Z,102056.53
2023-02-13T18:24:17.655Z,102060.16
2023-02-13T18:29:19.021Z,102066.31
2023-02-13T18:34:21.321Z,102062.25
2023-02-13T18:39:22.695Z,102054.91
2023-02-13T18:44:28.650Z,102061.03
2023-02-13T18:49:30.444Z,102056.69
2023-02-13T18:54:31.814Z,102046.34
2023-02-13T18:59:33.200Z,102032.84
2023-02-13T19:04:35.676Z,102029.47
2023-02-13T19:09:40.137Z,102027.84
2023-02-13T19:14:41.545Z,102016.53
2023-02-13T19:19:45.329Z,102020.78
2023-02-13T19:24:46.739Z,102026.19
2023-02-13T19:29:48.178Z,102024.47
2023-02-13T19:34:49.639Z,102039.25
2023-02-13T19:39:51.030Z,102055.47
2023-02-13T19:44:52.426Z,102060.84
2023-02-13T19:49:53.836Z,102069.59
2023-02-13T19:54:55.291Z,102069.41
2023-02-13T19:59:56.686Z,102066.41
2023-02-13T20:04:58.063Z,102067.44
2023-02-13T20:09:59.440Z,102061.50
2023-02-13T20:15:00.817Z,102065.47
2023-02-13T20:20:03.914Z,102063.19
2023-02-13T20:25:05.533Z,102077.50
2023-02-13T20:30:08.346Z,102081.09
2023-02-13T20:35:09.819Z,102076.66
2023-02-13T20:40:11.524Z,102078.91
2023-02-13T20:45:12.900Z,102074.00
2023-02-13T20:50:14.300Z,102079.84
2023-02-13T20:55:15.676Z,102084.69
2023-02-13T21:00:17.088Z,102088.63
2023-02-13T21:05:18.475Z,102084.59
2023-02-13T21:10:19.862Z,102083.22
2023-02-13T21:15:21.280Z,102079.09
2023-02-13T21:20:22.710Z,102079.22
2023-02-13T21:25:24.105Z,102066.78
2023-02-13T21:30:25.550Z,102078.53
2023-02-13T21:35:26.984Z,102080.06
2023-02-13T21:40:28.368Z,102077.78
2023-02-13T21:45:29.763Z,102070.34
2023-02-13T21:50:31.178Z,102083.72
2023-02-13T21:55:32.809Z,102076.84
2023-02-13T22:00:34.198Z,102077.34
2023-02-13T22:05:35.581Z,102078.53
2023-02-13T22:10:36.960Z,102071.19
2023-02-13T22:15:38.347Z,102081.00
2023-02-13T22:20:39.861Z,102088.25
2023-02-13T22:25:47.211Z,102100.47
2023-02-13T22:30:48.718Z,102090.13
2023-02-13T22:35:50.188Z,102095.97
2023-02-13T22:40:51.562Z,102098.50
2023-02-13T22:45:52.945Z,102104.72
2023-02-13T22:50:54.415Z,102111.41
2023-02-13T22:55:55.791Z,102114.16
2023-02-13T23:00:57.481Z,102122.81
2023-02-13T23:05:59.067Z,102120.56
2023-02-13T23:11:26.028Z,102118.09
2023-02-13T23:16:27.436Z,102127.63
2023-02-13T23:21:28.889Z,102119.50
2023-02-13T23:26:30.268Z,102125.72
2023-02-13T23:31:31.788Z,102128.09
2023-02-13T23:36:33.387Z,102130.03
2023-02-13T23:41:34.783Z,102120.47
2023-02-13T23:46:36.289Z,102113.66
2023-02-13T23:51:37.689Z,102113.41
2023-02-13T23:56:39.070Z,102114.91
